Hall Beach Airport
CYUX : now visible

Airfield :











YOU CAN JOIN US ON...

 
LOGIN :

Register | Disclaimer

   EN    FR    IT 

 









Legend :    VFR   Marginal VFR   IFR   Intensive IFR   Very Intensive IFR
Visi :
Ceiling :
>= 8 km
>= 3000ft
5 to 8 km
1000 to 3000 ft
1500m to 5 km
500 to 1000 ft
800 to 1500m
200 to 500 ft
< 800m
< 200 ft
Symbols :   Thunderstorms  Fog  Heavy snow  Heavy precipitations  Wind > 20 kt







- Airport Elevation : 27 ft
- IATA code : YUX


CYUX - Hall Beach

CURRENT METAR :
  • 170908Z AUTO 30005KT 4SM HZ BKN060 03/ A2978 RMK TD MISG SLP086

EXPIRED METARs :
  • 170821Z AUTO 27004KT 9SM SCT023 OVC060 03/03 A2977 RMK SLP085
  • 170807Z AUTO 27006KT 9SM SCT023 OVC055 03/03 A2977 RMK SLP085
  • 170700Z AUTO 24006KT 9SM FEW013 SCT031 OVC047 04/04 A2976 RMK SLP080

TAF TAF CYUX
Valid from the 17 at 07:00 until the 17 at 19:00 UTC


170638Z 1707/1719 23007KT P6SM OVC030
TEMPO 1707/1713 1SM -RA BR OVC003
BECMG 1707/1709 30012KT
FM171300 28012KT P6SM SCT005 OVC015
TEMPO 1713/1719 P6SM -RA OVC005 RMK FCST BASED ON AUTO OBS. NXT FCST BY 171300Z
No reported NOTAMs for that airfield.



MET'MAP, your aeronautical weather chart ! - Copyright ORBIFLY December 2007 - Disclaimer

ORBIFLY MET'MAP TEAM :

Programming & Development : Alexandra Zaïnal
Concept & Development : Baudouin d'Aumeries
Co-Development & Prog : Marc-Olivier Méhu
Technical & hardware support : Manuel Goepfert

Contact : metmap@orbifly.com




SOURCES & CREDITS :

   NOAA       Earth
Advisory